createdAt,value
2017-09-21T00:00:09.445Z,98.50
2017-09-21T00:02:40.378Z,98.50
2017-09-21T00:05:11.711Z,98.60
2017-09-21T00:07:42.706Z,98.40
2017-09-21T00:10:13.628Z,98.00
2017-09-21T00:12:44.546Z,98.10
2017-09-21T00:15:15.504Z,98.20
2017-09-21T00:17:46.825Z,98.20
2017-09-21T00:20:17.760Z,98.20
2017-09-21T00:22:49.192Z,98.30
2017-09-21T00:25:20.114Z,98.20
2017-09-21T00:27:51.811Z,98.20
2017-09-21T00:30:22.743Z,98.20
2017-09-21T00:32:53.654Z,98.00
2017-09-21T00:35:25.631Z,98.30
2017-09-21T00:37:56.569Z,98.00
2017-09-21T00:40:27.505Z,98.20
2017-09-21T00:42:58.449Z,98.00
2017-09-21T00:45:29.396Z,97.80
2017-09-21T00:48:00.725Z,97.70
2017-09-21T00:50:31.651Z,97.80
2017-09-21T00:53:03.557Z,97.50
2017-09-21T00:55:34.507Z,97.40
2017-09-21T00:58:05.428Z,97.40
2017-09-21T01:00:36.347Z,97.50
2017-09-21T01:03:07.291Z,97.40
2017-09-21T01:05:38.645Z,97.30
2017-09-21T01:08:09.573Z,97.30
2017-09-21T01:10:40.511Z,97.20
2017-09-21T01:13:11.450Z,97.30
2017-09-21T01:15:42.383Z,97.30
2017-09-21T01:18:13.723Z,97.20
2017-09-21T01:20:46.178Z,97.40
2017-09-21T01:23:17.888Z,97.40
2017-09-21T01:25:48.836Z,97.40
2017-09-21T01:28:19.751Z,97.50
2017-09-21T01:30:50.812Z,97.40
2017-09-21T01:33:22.579Z,97.60
2017-09-21T01:35:54.079Z,97.50
2017-09-21T01:38:25.795Z,97.70
2017-09-21T01:40:56.806Z,97.70
2017-09-21T01:43:27.777Z,97.70
2017-09-21T01:45:58.718Z,97.60
2017-09-21T01:48:36.342Z,97.60
2017-09-21T01:51:08.322Z,97.30
2017-09-21T01:53:39.559Z,97.30
2017-09-21T01:56:11.536Z,97.60
2017-09-21T01:58:42.628Z,97.60
2017-09-21T02:01:13.939Z,97.70
2017-09-21T02:03:44.858Z,97.80
2017-09-21T02:06:15.950Z,97.90
2017-09-21T02:08:46.881Z,97.90
2017-09-21T02:11:17.815Z,97.90
2017-09-21T02:13:48.762Z,98.00
2017-09-21T02:16:19.712Z,98.10
2017-09-21T02:18:50.855Z,98.20
2017-09-21T02:21:21.787Z,98.20
2017-09-21T02:23:52.720Z,98.30
2017-09-21T02:26:23.691Z,98.10
2017-09-21T02:28:55.400Z,98.10
2017-09-21T02:31:26.748Z,98.10
2017-09-21T02:33:57.691Z,98.10
2017-09-21T02:36:28.991Z,98.10
2017-09-21T02:39:00.699Z,98.10
2017-09-21T02:41:31.633Z,98.10
2017-09-21T02:44:02.775Z,98.00
2017-09-21T02:46:33.697Z,97.90
2017-09-21T02:49:05.245Z,97.90
2017-09-21T02:51:36.211Z,98.00
2017-09-21T02:54:07.156Z,98.00
2017-09-21T02:56:38.070Z,98.00
2017-09-21T02:59:09.021Z,98.10
2017-09-21T03:01:40.495Z,98.00
2017-09-21T03:04:11.430Z,98.00
2017-09-21T03:06:42.826Z,98.10
2017-09-21T03:09:13.773Z,98.00
2017-09-21T03:11:44.702Z,98.00
2017-09-21T03:14:15.629Z,98.00
2017-09-21T03:16:47.305Z,97.80
2017-09-21T03:19:18.522Z,97.80
2017-09-21T03:21:50.225Z,97.80
2017-09-21T03:24:21.142Z,97.80
2017-09-21T03:26:53.239Z,97.80
2017-09-21T03:29:24.126Z,97.90
2017-09-21T03:31:56.802Z,97.90
2017-09-21T03:34:28.468Z,98.00
2017-09-21T03:37:00.393Z,98.00
2017-09-21T03:39:31.315Z,98.00
2017-09-21T03:42:02.226Z,97.90
2017-09-21T03:44:33.174Z,97.90
2017-09-21T03:47:05.009Z,97.80
2017-09-21T03:49:36.402Z,97.70
2017-09-21T03:52:07.293Z,97.80
2017-09-21T03:54:38.203Z,97.70
2017-09-21T03:57:09.387Z,97.40
2017-09-21T03:59:40.336Z,96.90
2017-09-21T04:02:11.772Z,96.50
2017-09-21T04:04:42.727Z,96.70
2017-09-21T04:07:13.774Z,97.00
2017-09-21T04:09:44.735Z,97.30
2017-09-21T04:12:15.692Z,97.60
2017-09-21T04:14:46.749Z,97.90
2017-09-21T04:17:18.743Z,98.20
2017-09-21T04:19:50.342Z,98.20
2017-09-21T04:22:21.579Z,98.10
2017-09-21T04:24:53.923Z,98.20
2017-09-21T04:27:24.896Z,98.00
2017-09-21T04:29:55.822Z,98.00
2017-09-21T04:32:27.840Z,98.10
2017-09-21T04:34:58.762Z,98.10
2017-09-21T04:37:30.715Z,98.20
2017-09-21T04:40:02.670Z,98.30
2017-09-21T04:42:33.724Z,98.30
2017-09-21T04:45:06.487Z,98.00
2017-09-21T04:47:37.440Z,98.00
2017-09-21T04:50:09.573Z,97.90
2017-09-21T04:52:40.520Z,97.90
2017-09-21T04:55:11.435Z,97.80
2017-09-21T04:57:42.408Z,97.90
2017-09-21T05:00:13.323Z,98.00
2017-09-21T05:02:45.038Z,98.20
2017-09-21T05:05:16.793Z,98.30
2017-09-21T05:07:47.739Z,98.20
2017-09-21T05:10:18.672Z,98.10
2017-09-21T05:12:49.612Z,97.90
2017-09-21T05:15:20.979Z,98.00
2017-09-21T05:17:51.915Z,98.00
2017-09-21T05:20:23.044Z,98.10
2017-09-21T05:22:53.979Z,98.20
2017-09-21T05:25:25.221Z,98.20
2017-09-21T05:27:56.168Z,98.30
2017-09-21T05:30:27.094Z,98.10
2017-09-21T05:33:00.082Z,98.10
2017-09-21T05:35:31.027Z,98.10
2017-09-21T05:38:01.949Z,98.00
2017-09-21T05:40:33.646Z,98.00
2017-09-21T05:43:04.616Z,98.00
2017-09-21T05:45:35.981Z,98.10
2017-09-21T05:48:07.708Z,98.00
2017-09-21T05:50:39.120Z,98.00
2017-09-21T05:53:10.050Z,98.00
2017-09-21T05:55:40.971Z,98.00
2017-09-21T05:58:12.670Z,98.00
2017-09-21T06:00:43.586Z,97.90
2017-09-21T06:03:15.684Z,97.90
2017-09-21T06:05:46.597Z,97.90
2017-09-21T06:08:17.574Z,97.90
2017-09-21T06:10:48.572Z,97.80
2017-09-21T06:13:19.510Z,97.70
2017-09-21T06:15:51.604Z,97.80
2017-09-21T06:18:22.581Z,97.80
2017-09-21T06:20:54.417Z,97.80
2017-09-21T06:23:25.375Z,97.80
2017-09-21T06:25:56.313Z,97.90
2017-09-21T06:28:27.265Z,97.90
2017-09-21T06:30:58.955Z,97.40
2017-09-21T06:33:30.192Z,97.30
2017-09-21T06:36:01.135Z,97.30
2017-09-21T06:38:32.084Z,97.30
2017-09-21T06:41:03.102Z,97.40
2017-09-21T06:43:34.043Z,97.30
2017-09-21T06:46:05.391Z,97.40
2017-09-21T06:48:36.351Z,97.50
2017-09-21T06:51:07.622Z,97.40
2017-09-21T06:53:38.581Z,97.20
2017-09-21T06:56:09.519Z,97.10
2017-09-21T06:58:40.459Z,97.10
2017-09-21T07:01:11.375Z,97.10
2017-09-21T07:03:42.730Z,97.30
2017-09-21T07:06:13.839Z,97.20
2017-09-21T07:08:44.775Z,97.30
2017-09-21T07:11:15.718Z,97.00
2017-09-21T07:13:48.236Z,96.90
2017-09-21T07:16:19.665Z,96.80
2017-09-21T07:18:50.637Z,96.90
2017-09-21T07:21:22.838Z,96.90
2017-09-21T07:23:53.809Z,96.90
2017-09-21T07:26:25.691Z,96.70
2017-09-21T07:28:56.658Z,96.60
2017-09-21T07:31:28.379Z,96.70
2017-09-21T07:33:59.679Z,96.70
2017-09-21T07:36:30.632Z,96.80
2017-09-21T07:39:02.617Z,96.90
2017-09-21T07:41:33.569Z,97.00
2017-09-21T07:44:04.555Z,96.90
2017-09-21T07:46:36.619Z,97.00
2017-09-21T07:49:07.856Z,97.10
2017-09-21T07:51:39.857Z,97.10
2017-09-21T07:54:10.834Z,97.10
2017-09-21T07:56:41.782Z,97.00
2017-09-21T07:59:13.011Z,97.30
2017-09-21T08:01:43.952Z,97.40
2017-09-21T08:04:15.356Z,97.70
2017-09-21T08:06:46.296Z,98.00
2017-09-21T08:09:17.214Z,98.20
2017-09-21T08:11:48.164Z,98.30
2017-09-21T08:14:19.097Z,98.30
2017-09-21T08:16:50.445Z,98.20
2017-09-21T08:19:21.396Z,98.40
2017-09-21T08:21:52.369Z,98.60
2017-09-21T08:24:23.330Z,98.70
2017-09-21T08:26:55.046Z,98.70
2017-09-21T08:29:26.351Z,98.70
2017-09-21T08:31:58.021Z,98.90
2017-09-21T08:34:29.171Z,98.90
2017-09-21T08:37:00.090Z,98.80
2017-09-21T08:39:31.816Z,98.90
2017-09-21T08:42:03.050Z,98.90
2017-09-21T08:44:33.989Z,98.80
2017-09-21T08:47:12.554Z,98.80
2017-09-21T08:49:44.432Z,98.80
2017-09-21T08:52:15.355Z,98.90
2017-09-21T08:54:46.307Z,99.00
2017-09-21T08:57:17.260Z,99.00
2017-09-21T08:59:48.991Z,99.10
2017-09-21T09:02:19.955Z,99.10
2017-09-21T09:04:51.102Z,99.00
2017-09-21T09:07:22.078Z,99.10
2017-09-21T09:09:53.026Z,99.10
2017-09-21T09:12:25.079Z,99.10
2017-09-21T09:14:55.989Z,99.10
2017-09-21T09:17:27.303Z,99.20
2017-09-21T09:19:58.283Z,99.30
2017-09-21T09:22:29.199Z,99.10
2017-09-21T09:25:00.133Z,99.10
2017-09-21T09:27:31.091Z,99.10
2017-09-21T09:30:02.753Z,99.10
2017-09-21T09:32:33.686Z,99.10
2017-09-21T09:35:05.013Z,99.10
2017-09-21T09:37:35.972Z,99.20
2017-09-21T09:40:06.935Z,99.10
2017-09-21T09:42:37.875Z,99.10
2017-09-21T09:45:08.819Z,99.10
2017-09-21T09:47:40.984Z,98.90
2017-09-21T09:50:11.919Z,98.60
2017-09-21T09:52:42.862Z,98.60
2017-09-21T09:55:14.589Z,98.80
2017-09-21T09:57:45.542Z,98.80
2017-09-21T10:00:17.253Z,98.80
2017-09-21T10:02:48.196Z,98.90
2017-09-21T10:05:19.574Z,99.00
2017-09-21T10:07:51.293Z,98.90
2017-09-21T10:10:22.298Z,99.00
2017-09-21T10:12:54.306Z,99.00
2017-09-21T10:15:25.299Z,98.80
2017-09-21T10:17:56.611Z,98.90
2017-09-21T10:20:27.814Z,98.90
2017-09-21T10:22:59.748Z,99.10
2017-09-21T10:25:30.927Z,99.10
2017-09-21T10:28:02.174Z,99.10
2017-09-21T10:30:33.138Z,99.10
2017-09-21T10:33:04.098Z,99.10
2017-09-21T10:35:35.442Z,99.10
2017-09-21T10:38:06.384Z,99.00
2017-09-21T10:40:37.325Z,99.00
2017-09-21T10:43:08.292Z,98.90
2017-09-21T10:45:40.024Z,98.90
2017-09-21T10:48:11.430Z,98.80
2017-09-21T10:50:42.405Z,98.90
2017-09-21T10:53:13.343Z,98.90
2017-09-21T10:55:44.428Z,98.80
2017-09-21T10:58:16.140Z,98.40
2017-09-21T11:00:47.706Z,98.40
2017-09-21T11:03:18.632Z,98.20
2017-09-21T11:05:49.891Z,98.20
2017-09-21T11:08:20.833Z,98.10
2017-09-21T11:10:51.753Z,98.00
2017-09-21T11:13:22.718Z,98.00
2017-09-21T11:15:54.336Z,98.00
2017-09-21T11:18:26.539Z,98.00
2017-09-21T11:20:57.459Z,98.00
2017-09-21T11:23:29.116Z,98.00
2017-09-21T11:26:00.055Z,98.00
2017-09-21T11:28:30.992Z,98.00
2017-09-21T11:31:02.202Z,98.00
2017-09-21T11:33:33.154Z,98.00
2017-09-21T11:36:04.066Z,97.90
2017-09-21T11:38:34.974Z,97.90
2017-09-21T11:41:05.901Z,98.00
2017-09-21T11:43:36.830Z,98.00
2017-09-21T11:46:07.733Z,98.10
2017-09-21T11:48:38.929Z,98.00
2017-09-21T11:51:10.147Z,98.00
2017-09-21T11:53:41.228Z,98.00
2017-09-21T11:56:13.834Z,98.10
2017-09-21T11:58:44.778Z,98.10
2017-09-21T12:01:15.812Z,98.20
2017-09-21T12:03:46.726Z,98.20
2017-09-21T12:06:18.430Z,98.30
2017-09-21T12:08:49.355Z,98.30
2017-09-21T12:11:20.301Z,98.60
2017-09-21T12:13:51.623Z,98.40
2017-09-21T12:16:23.572Z,98.40
2017-09-21T12:18:55.820Z,98.50
2017-09-21T12:21:26.740Z,98.50
2017-09-21T12:23:57.671Z,98.50
2017-09-21T12:26:28.635Z,98.50
2017-09-21T12:28:59.567Z,98.50
2017-09-21T12:31:30.858Z,98.50
2017-09-21T12:34:01.815Z,98.60
2017-09-21T12:36:32.758Z,98.60
2017-09-21T12:39:03.670Z,98.60
2017-09-21T12:41:34.818Z,98.70
2017-09-21T12:44:06.062Z,98.80
2017-09-21T12:46:36.984Z,98.80
2017-09-21T12:49:08.962Z,98.80
2017-09-21T12:51:39.917Z,98.80
2017-09-21T12:54:10.874Z,98.90
2017-09-21T12:56:41.805Z,98.90
2017-09-21T12:59:12.749Z,98.80
2017-09-21T13:01:44.083Z,99.00
2017-09-21T13:04:15.016Z,98.90
2017-09-21T13:06:45.965Z,98.90
2017-09-21T13:09:16.894Z,98.80
2017-09-21T13:11:47.830Z,98.80
2017-09-21T13:14:19.167Z,98.80
2017-09-21T13:16:50.124Z,98.80
2017-09-21T13:19:21.510Z,98.90
2017-09-21T13:21:53.809Z,98.80
2017-09-21T13:24:25.758Z,98.80
2017-09-21T13:26:57.468Z,98.80
2017-09-21T13:29:28.402Z,98.80
2017-09-21T13:31:59.759Z,98.80
2017-09-21T13:34:30.668Z,98.70
2017-09-21T13:37:01.607Z,98.60
2017-09-21T13:39:33.441Z,98.80
2017-09-21T13:42:05.255Z,97.60
2017-09-21T13:44:36.558Z,97.50
2017-09-21T13:47:08.266Z,97.70
2017-09-21T13:49:39.419Z,97.70
2017-09-21T13:52:10.380Z,97.70
2017-09-21T13:54:42.832Z,97.80
2017-09-21T13:57:13.836Z,97.80
2017-09-21T13:59:44.765Z,97.80
2017-09-21T14:02:15.948Z,97.80
2017-09-21T14:04:46.859Z,97.60
2017-09-21T14:07:17.774Z,97.70
2017-09-21T14:09:49.460Z,98.20
2017-09-21T14:12:20.386Z,98.20
2017-09-21T14:14:51.666Z,98.50
2017-09-21T14:17:22.602Z,98.60
2017-09-21T14:19:54.030Z,98.60
2017-09-21T14:22:25.950Z,98.70
2017-09-21T14:24:57.621Z,98.90
2017-09-21T14:27:28.607Z,98.90
2017-09-21T14:29:59.531Z,98.90
2017-09-21T14:32:31.102Z,98.90
2017-09-21T14:35:02.018Z,99.00
2017-09-21T14:37:32.954Z,99.10
2017-09-21T14:40:03.874Z,99.00
2017-09-21T14:42:34.829Z,98.90
2017-09-21T14:45:06.920Z,98.80
2017-09-21T14:47:37.862Z,98.80
2017-09-21T14:50:09.158Z,98.80
2017-09-21T14:52:40.082Z,98.80
2017-09-21T14:55:11.776Z,98.80
2017-09-21T14:57:42.734Z,99.00
2017-09-21T15:00:13.666Z,98.90
2017-09-21T15:02:47.791Z,98.90
2017-09-21T15:05:18.808Z,99.10
2017-09-21T15:07:49.738Z,99.00
2017-09-21T15:10:20.673Z,99.00
2017-09-21T15:12:51.612Z,99.20
2017-09-21T15:15:24.003Z,99.20
2017-09-21T15:17:54.980Z,99.20
2017-09-21T15:20:26.366Z,99.10
2017-09-21T15:22:57.370Z,99.00
2017-09-21T15:25:28.290Z,99.00
2017-09-21T15:27:59.236Z,99.20
2017-09-21T15:30:30.174Z,99.20
2017-09-21T15:33:01.589Z,99.20
2017-09-21T15:35:32.529Z,99.30
2017-09-21T15:38:04.205Z,99.40
2017-09-21T15:40:35.145Z,99.40
2017-09-21T15:43:06.078Z,99.30
2017-09-21T15:45:37.546Z,99.30
2017-09-21T15:48:08.442Z,99.30
2017-09-21T15:50:39.762Z,99.30
2017-09-21T15:53:11.445Z,99.40
2017-09-21T15:55:42.379Z,99.40
2017-09-21T15:58:13.351Z,99.40
2017-09-21T16:00:44.262Z,99.40
2017-09-21T16:03:15.701Z,99.40
2017-09-21T16:05:46.638Z,99.40
2017-09-21T16:08:17.588Z,99.40
2017-09-21T16:10:48.688Z,99.40
2017-09-21T16:13:20.651Z,99.30
2017-09-21T16:15:52.904Z,99.30
2017-09-21T16:18:24.023Z,99.30
2017-09-21T16:20:55.291Z,99.30
2017-09-21T16:23:26.236Z,99.60
2017-09-21T16:25:57.171Z,99.30
2017-09-21T16:28:28.072Z,99.30
2017-09-21T16:30:59.002Z,99.30
2017-09-21T16:33:30.260Z,99.30
2017-09-21T16:36:01.410Z,99.30
2017-09-21T16:38:32.647Z,99.30
2017-09-21T16:41:03.822Z,99.30
2017-09-21T16:43:35.041Z,99.40
2017-09-21T16:46:06.571Z,99.40
2017-09-21T16:48:37.513Z,99.30
2017-09-21T16:51:08.450Z,99.40
2017-09-21T16:53:39.379Z,99.30
2017-09-21T16:56:10.551Z,99.40
2017-09-21T16:58:41.522Z,99.40
2017-09-21T17:01:12.567Z,99.40
2017-09-21T17:03:44.014Z,99.40
2017-09-21T17:06:14.962Z,99.40
2017-09-21T17:08:45.982Z,99.50
2017-09-21T17:11:16.882Z,99.40
2017-09-21T17:13:47.881Z,99.50
2017-09-21T17:16:20.304Z,99.30
2017-09-21T17:18:51.267Z,99.30
2017-09-21T17:21:22.187Z,99.40
2017-09-21T17:23:54.100Z,99.50
2017-09-21T17:26:25.782Z,99.50
2017-09-21T17:28:56.727Z,99.50
2017-09-21T17:31:27.664Z,99.40
2017-09-21T17:33:59.003Z,99.30
2017-09-21T17:36:29.926Z,99.30
2017-09-21T17:39:01.619Z,99.40
2017-09-21T17:41:32.543Z,99.40
2017-09-21T17:44:03.507Z,99.50
2017-09-21T17:46:34.834Z,99.60
2017-09-21T17:49:05.768Z,99.70
2017-09-21T17:51:36.682Z,99.80
2017-09-21T17:54:08.386Z,99.80
2017-09-21T17:56:39.312Z,99.80
2017-09-21T17:59:10.270Z,99.30
2017-09-21T18:01:42.240Z,99.00
2017-09-21T18:04:13.701Z,98.70
2017-09-21T18:06:44.626Z,98.80
2017-09-21T18:09:15.551Z,98.70
2017-09-21T18:11:46.486Z,98.60
2017-09-21T18:14:17.421Z,98.80
2017-09-21T18:16:48.874Z,98.80
2017-09-21T18:19:19.811Z,98.90
2017-09-21T18:21:50.757Z,99.00
2017-09-21T18:24:21.727Z,99.00
2017-09-21T18:26:53.573Z,99.10
2017-09-21T18:29:25.700Z,99.20
2017-09-21T18:31:56.945Z,99.20
2017-09-21T18:34:29.103Z,99.20
2017-09-21T18:36:59.980Z,99.10
2017-09-21T18:39:30.943Z,99.20
2017-09-21T18:42:01.845Z,99.30
2017-09-21T18:44:32.784Z,99.40
2017-09-21T18:47:04.059Z,99.40
2017-09-21T18:49:34.982Z,99.80
2017-09-21T18:52:05.879Z,99.50
2017-09-21T18:54:36.791Z,99.50
2017-09-21T18:57:08.510Z,99.60
2017-09-21T18:59:39.805Z,99.60
2017-09-21T19:02:11.581Z,99.40
2017-09-21T19:04:42.910Z,99.40
2017-09-21T19:07:14.636Z,99.40
2017-09-21T19:09:45.694Z,99.40
2017-09-21T19:12:17.366Z,99.50
2017-09-21T19:14:48.347Z,99.50
2017-09-21T19:17:19.480Z,99.60
2017-09-21T19:19:50.423Z,99.70
2017-09-21T19:22:21.348Z,99.70
2017-09-21T19:24:52.259Z,99.70
2017-09-21T19:27:23.267Z,99.70
2017-09-21T19:29:54.474Z,99.70
2017-09-21T19:32:25.419Z,99.70
2017-09-21T19:34:57.460Z,99.70
2017-09-21T19:37:28.377Z,99.70
2017-09-21T19:40:00.073Z,99.70
2017-09-21T19:42:30.979Z,99.60
2017-09-21T19:45:02.637Z,99.60
2017-09-21T19:47:34.659Z,99.60
2017-09-21T19:50:05.582Z,99.60
2017-09-21T19:52:36.492Z,99.60
2017-09-21T19:55:07.442Z,99.70
2017-09-21T19:57:38.339Z,99.70
2017-09-21T20:00:10.242Z,99.70
2017-09-21T20:02:41.162Z,99.60
2017-09-21T20:05:12.436Z,99.50
2017-09-21T20:07:43.351Z,99.60
2017-09-21T20:10:14.271Z,99.60
2017-09-21T20:12:45.930Z,99.70
2017-09-21T20:15:17.657Z,99.70
2017-09-21T20:17:48.927Z,99.70
2017-09-21T20:20:20.594Z,99.80
2017-09-21T20:22:51.583Z,99.80
2017-09-21T20:25:22.602Z,99.80
2017-09-21T20:27:53.503Z,99.70
2017-09-21T20:30:24.516Z,99.70
2017-09-21T20:32:55.996Z,99.70
2017-09-21T20:35:28.065Z,99.60
2017-09-21T20:37:59.744Z,99.60
2017-09-21T20:40:30.655Z,99.60
2017-09-21T20:43:02.318Z,99.70
2017-09-21T20:45:33.219Z,99.60
2017-09-21T20:48:04.595Z,99.70
2017-09-21T20:50:36.272Z,99.60
2017-09-21T20:53:07.155Z,99.60
2017-09-21T20:55:38.086Z,99.60
2017-09-21T20:58:08.985Z,99.60
2017-09-21T21:00:40.931Z,99.70
2017-09-21T21:03:12.607Z,99.70
2017-09-21T21:05:43.820Z,99.60
2017-09-21T21:08:15.518Z,99.70
2017-09-21T21:10:46.443Z,99.70
2017-09-21T21:13:17.382Z,99.70
2017-09-21T21:15:48.284Z,99.60
2017-09-21T21:18:20.371Z,99.50
2017-09-21T21:20:51.316Z,99.50
2017-09-21T21:23:22.243Z,99.30
2017-09-21T21:25:53.958Z,99.40
2017-09-21T21:28:24.877Z,99.40
2017-09-21T21:30:56.234Z,99.40
2017-09-21T21:33:27.388Z,99.40
2017-09-21T21:35:58.541Z,99.30
2017-09-21T21:38:29.714Z,99.30
2017-09-21T21:41:01.474Z,99.40
2017-09-21T21:43:33.151Z,99.40
2017-09-21T21:46:04.077Z,99.40
2017-09-21T21:48:36.034Z,99.40
2017-09-21T21:51:07.007Z,99.50
2017-09-21T21:53:37.906Z,99.50
2017-09-21T21:56:09.584Z,99.40
2017-09-21T21:58:40.720Z,99.40
2017-09-21T22:01:12.082Z,99.20
2017-09-21T22:03:43.002Z,99.20
2017-09-21T22:06:13.942Z,99.20
2017-09-21T22:08:44.862Z,99.10
2017-09-21T22:11:16.518Z,99.40
2017-09-21T22:13:48.195Z,99.10
2017-09-21T22:16:19.123Z,99.10
2017-09-21T22:18:50.469Z,99.10
2017-09-21T22:21:22.178Z,99.20
2017-09-21T22:23:53.131Z,99.20
2017-09-21T22:26:24.049Z,99.20
2017-09-21T22:28:55.152Z,99.00
2017-09-21T22:31:26.295Z,99.20
2017-09-21T22:33:57.204Z,99.20
2017-09-21T22:36:29.166Z,99.30
2017-09-21T22:39:00.091Z,99.30
2017-09-21T22:41:31.010Z,99.30
2017-09-21T22:44:01.913Z,99.20
2017-09-21T22:46:32.835Z,99.20
2017-09-21T22:49:04.898Z,99.30
2017-09-21T22:51:36.612Z,99.40
2017-09-21T22:54:07.517Z,99.40
2017-09-21T22:56:38.839Z,99.40
2017-09-21T22:59:10.530Z,99.30
2017-09-21T23:01:41.669Z,99.30
2017-09-21T23:04:12.593Z,99.20
2017-09-21T23:06:43.519Z,99.10
2017-09-21T23:09:15.200Z,99.10
2017-09-21T23:11:46.134Z,99.00
2017-09-21T23:14:17.079Z,98.90
2017-09-21T23:16:48.024Z,98.80
2017-09-21T23:19:19.347Z,99.00
2017-09-21T23:21:50.263Z,98.90
2017-09-21T23:24:21.958Z,99.10
2017-09-21T23:26:52.851Z,99.10
2017-09-21T23:29:24.587Z,99.30
2017-09-21T23:31:56.703Z,99.30
2017-09-21T23:34:27.610Z,99.30
2017-09-21T23:36:58.498Z,99.30
2017-09-21T23:39:29.439Z,99.40
2017-09-21T23:42:00.334Z,99.40
2017-09-21T23:44:32.421Z,99.50
2017-09-21T23:47:03.361Z,99.50
2017-09-21T23:49:34.611Z,99.50
2017-09-21T23:52:05.560Z,99.70
2017-09-21T23:54:37.099Z,99.80
2017-09-21T23:57:08.031Z,99.80
2017-09-21T23:59:38.943Z,99.70
